createdAt,value
2017-10-26T00:02:19.550Z,4.47
2017-10-26T00:04:46.177Z,4.03
2017-10-26T00:07:12.849Z,5.00
2017-10-26T00:09:39.497Z,4.20
2017-10-26T00:12:06.133Z,4.63
2017-10-26T00:14:32.809Z,3.97
2017-10-26T00:16:59.441Z,4.40
2017-10-26T00:19:26.088Z,3.83
2017-10-26T00:21:52.747Z,4.00
2017-10-26T00:24:19.397Z,4.37
2017-10-26T00:26:46.033Z,4.27
2017-10-26T00:29:12.800Z,3.70
2017-10-26T00:31:39.428Z,3.50
2017-10-26T00:34:06.088Z,4.77
2017-10-26T00:36:32.752Z,4.00
2017-10-26T00:38:59.393Z,4.40
2017-10-26T00:41:26.044Z,4.30
2017-10-26T00:43:52.684Z,3.80
2017-10-26T00:46:19.356Z,4.37
2017-10-26T00:48:46.014Z,5.40
2017-10-26T00:51:12.760Z,4.37
2017-10-26T00:53:39.392Z,3.80
2017-10-26T00:56:06.046Z,3.90
2017-10-26T00:58:32.671Z,4.47
2017-10-26T01:00:59.301Z,4.27
2017-10-26T01:03:26.012Z,3.60
2017-10-26T01:05:52.765Z,3.80
2017-10-26T01:08:19.414Z,4.10
2017-10-26T01:10:46.043Z,4.37
2017-10-26T01:13:12.695Z,3.90
2017-10-26T01:15:39.369Z,5.10
2017-10-26T01:18:06.018Z,4.77
2017-10-26T01:20:32.652Z,3.77
2017-10-26T01:22:59.303Z,4.10
2017-10-26T01:25:25.969Z,4.23
2017-10-26T01:27:52.625Z,4.40
2017-10-26T01:30:19.272Z,4.63
2017-10-26T01:32:45.919Z,3.83
2017-10-26T01:35:12.564Z,3.97
2017-10-26T01:37:39.221Z,4.03
2017-10-26T01:40:05.868Z,4.27
2017-10-26T01:42:32.504Z,4.00
2017-10-26T01:44:59.182Z,4.13
2017-10-26T01:47:25.825Z,4.50
2017-10-26T01:49:52.489Z,3.80
2017-10-26T01:52:19.116Z,4.33
2017-10-26T01:54:45.759Z,4.50
2017-10-26T01:57:12.409Z,3.90
2017-10-26T01:59:39.037Z,4.57
2017-10-26T02:02:05.684Z,4.30
2017-10-26T02:04:32.390Z,4.07
2017-10-26T02:06:59.036Z,3.80
2017-10-26T02:09:25.672Z,4.07
2017-10-26T02:11:52.320Z,4.00
2017-10-26T02:14:18.981Z,4.33
2017-10-26T02:16:45.732Z,3.37
2017-10-26T02:19:12.385Z,3.93
2017-10-26T02:21:39.059Z,3.93
2017-10-26T02:24:05.893Z,3.77
2017-10-26T02:26:32.524Z,3.73
2017-10-26T02:29:04.984Z,3.93
2017-10-26T02:31:34.331Z,3.40
2017-10-26T02:34:00.976Z,3.53
2017-10-26T02:36:27.604Z,4.03
2017-10-26T02:38:54.257Z,3.90
2017-10-26T02:41:20.888Z,3.57
2017-10-26T02:43:47.541Z,4.10
2017-10-26T02:46:14.168Z,4.00
2017-10-26T02:48:40.896Z,3.40
2017-10-26T02:51:07.552Z,3.93
2017-10-26T02:53:34.185Z,3.57
2017-10-26T02:56:00.856Z,3.70
2017-10-26T02:58:27.488Z,4.23
2017-10-26T03:00:54.140Z,3.70
2017-10-26T03:03:20.768Z,4.30
2017-10-26T03:05:47.472Z,3.73
2017-10-26T03:08:14.105Z,3.90
2017-10-26T03:10:40.732Z,3.80
2017-10-26T03:13:07.410Z,4.10
2017-10-26T03:15:34.049Z,4.73
2017-10-26T03:18:00.725Z,4.03
2017-10-26T03:20:27.365Z,3.50
2017-10-26T03:22:54.125Z,3.97
2017-10-26T03:25:20.769Z,4.20
2017-10-26T03:27:47.427Z,4.03
2017-10-26T03:30:14.079Z,4.07
2017-10-26T03:32:40.749Z,3.73
2017-10-26T03:35:07.391Z,3.40
2017-10-26T03:37:34.121Z,3.33
2017-10-26T03:40:00.778Z,3.67
2017-10-26T03:42:27.428Z,3.73
2017-10-26T03:44:54.169Z,3.50
2017-10-26T03:47:20.827Z,3.33
2017-10-26T03:49:47.493Z,3.63
2017-10-26T03:52:14.125Z,3.20
2017-10-26T03:54:40.788Z,3.53
2017-10-26T03:57:07.525Z,3.20
2017-10-26T03:59:34.283Z,3.60
2017-10-26T04:02:00.928Z,3.60
2017-10-26T04:04:27.573Z,3.10
2017-10-26T04:06:54.337Z,3.70
2017-10-26T04:09:20.972Z,3.67
2017-10-26T04:11:47.646Z,3.47
2017-10-26T04:14:14.293Z,3.20
2017-10-26T04:16:40.940Z,3.50
2017-10-26T04:19:07.573Z,3.50
2017-10-26T04:21:34.224Z,3.50
2017-10-26T04:24:00.862Z,4.33
2017-10-26T04:26:27.517Z,3.80
2017-10-26T04:28:54.153Z,4.03
2017-10-26T04:31:20.809Z,3.60
2017-10-26T04:33:47.444Z,3.60
2017-10-26T04:36:14.145Z,3.53
2017-10-26T04:38:40.808Z,3.90
2017-10-26T04:41:07.449Z,4.37
2017-10-26T04:43:34.105Z,3.40
2017-10-26T04:46:00.741Z,3.03
2017-10-26T04:48:27.401Z,3.70
2017-10-26T04:50:54.036Z,3.87
2017-10-26T04:53:20.705Z,3.40
2017-10-26T04:55:47.338Z,3.57
2017-10-26T04:58:13.969Z,3.87
2017-10-26T05:00:40.617Z,3.37
2017-10-26T05:03:07.249Z,3.50
2017-10-26T05:05:33.906Z,3.43
2017-10-26T05:08:00.544Z,3.60
2017-10-26T05:10:27.516Z,3.53
2017-10-26T05:12:54.155Z,3.73
2017-10-26T05:15:20.837Z,3.70
2017-10-26T05:17:47.480Z,3.60
2017-10-26T05:20:14.165Z,3.50
2017-10-26T05:22:40.873Z,3.80
2017-10-26T05:25:07.570Z,3.43
2017-10-26T05:27:34.221Z,3.97
2017-10-26T05:30:00.853Z,3.43
2017-10-26T05:32:27.504Z,3.20
2017-10-26T05:34:54.163Z,3.20
2017-10-26T05:37:20.916Z,3.20
2017-10-26T05:39:47.573Z,3.20
2017-10-26T05:42:14.324Z,3.40
2017-10-26T05:44:40.957Z,3.23
2017-10-26T05:47:07.634Z,3.30
2017-10-26T05:49:34.277Z,3.23
2017-10-26T05:52:00.934Z,3.63
2017-10-26T05:54:27.564Z,3.50
2017-10-26T05:56:54.233Z,3.57
2017-10-26T05:59:20.869Z,3.10
2017-10-26T06:01:47.538Z,3.00
2017-10-26T06:04:14.168Z,3.10
2017-10-26T06:06:40.834Z,3.10
2017-10-26T06:09:07.494Z,3.03
2017-10-26T06:11:34.166Z,3.23
2017-10-26T06:14:00.830Z,3.30
2017-10-26T06:16:27.464Z,3.17
2017-10-26T06:18:54.185Z,3.20
2017-10-26T06:21:20.822Z,2.93
2017-10-26T06:23:47.485Z,3.30
2017-10-26T06:26:14.130Z,3.10
2017-10-26T06:28:40.780Z,3.20
2017-10-26T06:31:07.420Z,3.00
2017-10-26T06:33:34.089Z,2.80
2017-10-26T06:36:00.720Z,3.10
2017-10-26T06:38:27.384Z,3.10
2017-10-26T06:40:54.145Z,3.00
2017-10-26T06:43:20.777Z,3.20
2017-10-26T06:45:47.424Z,2.80
2017-10-26T06:48:14.077Z,3.43
2017-10-26T06:50:40.724Z,3.10
2017-10-26T06:53:07.362Z,3.00
2017-10-26T06:55:34.021Z,3.30
2017-10-26T06:58:00.653Z,3.00
2017-10-26T07:00:27.317Z,3.30
2017-10-26T07:02:53.953Z,2.83
2017-10-26T07:05:20.653Z,3.10
2017-10-26T07:07:47.396Z,3.00
2017-10-26T07:10:14.038Z,3.50
2017-10-26T07:12:40.685Z,3.70
2017-10-26T07:15:07.313Z,3.80
2017-10-26T07:17:33.972Z,3.90
2017-10-26T07:20:00.652Z,6.50
2017-10-26T07:22:27.415Z,4.17
2017-10-26T07:24:54.070Z,4.90
2017-10-26T07:27:20.722Z,5.73
2017-10-26T07:29:47.427Z,6.50
2017-10-26T07:32:14.122Z,8.83
2017-10-26T07:34:40.865Z,9.70
2017-10-26T07:37:07.509Z,10.17
2017-10-26T07:39:34.165Z,8.60
2017-10-26T07:42:00.813Z,9.07
2017-10-26T07:44:27.467Z,9.50
2017-10-26T07:46:54.124Z,7.60
2017-10-26T07:49:20.939Z,7.57
2017-10-26T07:51:47.576Z,7.50
2017-10-26T07:54:14.241Z,10.50
2017-10-26T07:56:40.893Z,8.17
2017-10-26T07:59:07.582Z,9.60
2017-10-26T08:01:34.221Z,8.17
2017-10-26T08:04:00.980Z,7.50
2017-10-26T08:06:27.637Z,7.47
2017-10-26T08:08:54.293Z,8.60
2017-10-26T08:11:20.938Z,8.07
2017-10-26T08:13:47.601Z,7.30
2017-10-26T08:16:14.248Z,7.40
2017-10-26T08:18:40.997Z,8.20
2017-10-26T08:21:07.758Z,7.60
2017-10-26T08:23:34.502Z,7.80
2017-10-26T08:26:01.275Z,7.50
2017-10-26T08:28:27.934Z,8.33
2017-10-26T08:30:54.752Z,9.40
2017-10-26T08:33:21.397Z,9.20
2017-10-26T08:35:48.049Z,7.93
2017-10-26T08:38:14.694Z,8.80
2017-10-26T08:40:41.377Z,8.27
2017-10-26T08:43:08.030Z,8.87
2017-10-26T08:45:34.666Z,7.60
2017-10-26T08:48:01.329Z,8.70
2017-10-26T08:50:27.974Z,9.53
2017-10-26T08:52:54.637Z,7.30
2017-10-26T08:55:21.287Z,8.40
2017-10-26T08:57:47.953Z,7.27
2017-10-26T09:00:14.593Z,7.77
2017-10-26T09:02:41.253Z,8.10
2017-10-26T09:05:07.897Z,7.33
2017-10-26T09:07:34.574Z,8.17
2017-10-26T09:10:01.212Z,8.47
2017-10-26T09:12:27.917Z,8.00
2017-10-26T09:14:54.574Z,7.93
2017-10-26T09:17:21.213Z,7.37
2017-10-26T09:19:47.872Z,7.70
2017-10-26T09:22:14.534Z,8.30
2017-10-26T09:24:41.218Z,7.60
2017-10-26T09:27:07.865Z,7.20
2017-10-26T09:29:34.522Z,6.37
2017-10-26T09:32:01.228Z,8.10
2017-10-26T09:34:27.887Z,6.60
2017-10-26T09:36:54.637Z,6.73
2017-10-26T09:39:21.303Z,6.90
2017-10-26T09:41:47.946Z,6.80
2017-10-26T09:44:14.597Z,7.47
2017-10-26T09:46:41.281Z,6.47
2017-10-26T09:49:07.922Z,6.43
2017-10-26T09:51:34.583Z,6.63
2017-10-26T09:54:01.293Z,6.47
2017-10-26T09:56:27.953Z,6.23
2017-10-26T09:58:54.598Z,6.20
2017-10-26T10:01:21.249Z,6.27
2017-10-26T10:03:47.890Z,6.50
2017-10-26T10:06:14.554Z,7.17
2017-10-26T10:08:41.192Z,7.40
2017-10-26T10:11:07.861Z,5.83
2017-10-26T10:13:34.500Z,6.67
2017-10-26T10:16:01.158Z,6.67
2017-10-26T10:18:27.817Z,6.37
2017-10-26T10:20:54.661Z,6.70
2017-10-26T10:23:21.317Z,5.93
2017-10-26T10:25:47.952Z,6.37
2017-10-26T10:28:14.625Z,6.33
2017-10-26T10:30:41.271Z,6.37
2017-10-26T10:33:07.935Z,5.70
2017-10-26T10:35:34.568Z,6.13
2017-10-26T10:38:01.233Z,5.50
2017-10-26T10:40:27.979Z,5.17
2017-10-26T10:42:54.665Z,6.27
2017-10-26T10:45:21.385Z,5.10
2017-10-26T10:47:48.021Z,5.57
2017-10-26T10:50:14.677Z,6.00
2017-10-26T10:52:41.332Z,6.50
2017-10-26T10:55:08.025Z,5.70
2017-10-26T10:57:34.741Z,5.77
2017-10-26T11:00:07.272Z,6.17
2017-10-26T11:02:33.980Z,5.90
2017-10-26T11:05:00.636Z,5.87
2017-10-26T11:07:27.284Z,5.60
2017-10-26T11:09:53.946Z,6.53
2017-10-26T11:12:20.587Z,5.50
2017-10-26T11:14:47.257Z,5.60
2017-10-26T11:17:13.913Z,5.43
2017-10-26T11:19:40.604Z,5.80
2017-10-26T11:22:07.265Z,5.90
2017-10-26T11:24:33.907Z,5.70
2017-10-26T11:27:00.598Z,6.17
2017-10-26T11:29:27.238Z,6.07
2017-10-26T11:31:53.888Z,6.03
2017-10-26T11:34:20.525Z,5.70
2017-10-26T11:36:47.196Z,5.10
2017-10-26T11:39:13.846Z,6.03
2017-10-26T11:41:40.706Z,5.80
2017-10-26T11:44:07.462Z,6.93
2017-10-26T11:46:34.124Z,6.47
2017-10-26T11:49:00.773Z,5.30
2017-10-26T11:51:27.420Z,4.90
2017-10-26T11:53:54.076Z,5.30
2017-10-26T11:56:20.713Z,6.03
2017-10-26T11:58:47.479Z,5.60
2017-10-26T12:01:14.131Z,5.50
2017-10-26T12:03:40.807Z,5.30
2017-10-26T12:06:07.461Z,5.50
2017-10-26T12:08:34.120Z,5.67
2017-10-26T12:11:00.770Z,6.47
2017-10-26T12:13:27.424Z,5.50
2017-10-26T12:15:54.061Z,5.60
2017-10-26T12:18:20.692Z,5.83
2017-10-26T12:20:47.345Z,5.20
2017-10-26T12:23:13.992Z,5.43
2017-10-26T12:25:41.169Z,6.13
2017-10-26T12:28:07.893Z,5.40
2017-10-26T12:30:34.545Z,5.50
2017-10-26T12:33:01.226Z,5.60
2017-10-26T12:35:28.263Z,5.10
2017-10-26T12:37:54.921Z,5.10
2017-10-26T12:40:21.561Z,5.40
2017-10-26T12:42:48.212Z,4.80
2017-10-26T12:45:14.849Z,5.23
2017-10-26T12:47:41.529Z,4.30
2017-10-26T12:50:08.163Z,5.60
2017-10-26T12:52:34.817Z,5.20
2017-10-26T12:55:01.462Z,4.60
2017-10-26T12:57:28.133Z,5.13
2017-10-26T12:59:54.788Z,4.63
2017-10-26T13:02:21.526Z,4.57
2017-10-26T13:04:48.185Z,4.63
2017-10-26T13:07:14.854Z,4.43
2017-10-26T13:09:41.526Z,4.93
2017-10-26T13:12:08.159Z,5.40
2017-10-26T13:14:34.876Z,5.40
2017-10-26T13:17:01.517Z,4.20
2017-10-26T13:19:28.198Z,5.17
2017-10-26T13:21:54.843Z,4.27
2017-10-26T13:24:21.522Z,4.30
2017-10-26T13:26:48.167Z,4.50
2017-10-26T13:29:14.809Z,4.57
2017-10-26T13:31:41.558Z,5.00
2017-10-26T13:34:08.288Z,4.47
2017-10-26T13:36:34.936Z,4.83
2017-10-26T13:39:01.593Z,4.60
2017-10-26T13:41:28.258Z,4.70
2017-10-26T13:43:54.892Z,4.53
2017-10-26T13:46:21.545Z,4.70
2017-10-26T13:48:48.177Z,4.57
2017-10-26T13:51:14.865Z,5.27
2017-10-26T13:53:42.063Z,4.47
2017-10-26T13:56:08.785Z,5.23
2017-10-26T13:58:35.532Z,4.50
2017-10-26T14:01:02.164Z,4.10
2017-10-26T14:03:28.831Z,3.80
2017-10-26T14:05:55.464Z,4.70
2017-10-26T14:08:22.112Z,5.00
2017-10-26T14:10:48.741Z,5.00
2017-10-26T14:13:15.426Z,4.60
2017-10-26T14:15:42.080Z,4.57
2017-10-26T14:18:08.733Z,5.23
2017-10-26T14:20:35.373Z,4.63
2017-10-26T14:23:02.040Z,4.57
2017-10-26T14:25:28.668Z,4.27
2017-10-26T14:27:55.310Z,4.57
2017-10-26T14:30:21.971Z,4.30
2017-10-26T14:32:48.626Z,4.40
2017-10-26T14:35:15.284Z,4.50
2017-10-26T14:37:41.937Z,3.77
2017-10-26T14:40:08.697Z,4.37
2017-10-26T14:42:35.354Z,5.13
2017-10-26T14:45:02.011Z,4.13
2017-10-26T14:47:28.972Z,4.57
2017-10-26T14:49:55.676Z,4.30
2017-10-26T14:52:22.305Z,4.37
2017-10-26T14:54:48.977Z,5.43
2017-10-26T14:57:15.609Z,4.20
2017-10-26T14:59:42.269Z,4.43
2017-10-26T15:02:08.938Z,4.50
2017-10-26T15:04:35.577Z,4.27
2017-10-26T15:07:02.236Z,4.20
2017-10-26T15:09:28.872Z,4.00
2017-10-26T15:11:55.582Z,3.50
2017-10-26T15:14:22.221Z,5.10
2017-10-26T15:16:48.961Z,4.30
2017-10-26T15:19:15.603Z,5.00
2017-10-26T15:21:42.289Z,3.77
2017-10-26T15:24:09.029Z,4.57
2017-10-26T15:26:35.676Z,4.07
2017-10-26T15:29:02.308Z,4.63
2017-10-26T15:31:28.977Z,4.87
2017-10-26T15:33:55.636Z,3.73
2017-10-26T15:36:22.277Z,3.93
2017-10-26T15:38:48.924Z,4.50
2017-10-26T15:41:15.552Z,3.93
2017-10-26T15:43:42.226Z,3.70
2017-10-26T15:46:08.864Z,4.43
2017-10-26T15:48:35.536Z,4.17
2017-10-26T15:51:02.184Z,4.27
2017-10-26T15:53:28.853Z,3.90
2017-10-26T15:55:55.502Z,4.40
2017-10-26T15:58:22.163Z,4.13
2017-10-26T16:00:48.802Z,3.67
2017-10-26T16:03:15.463Z,4.03
2017-10-26T16:05:42.223Z,4.50
2017-10-26T16:08:08.962Z,3.97
2017-10-26T16:10:35.618Z,4.13
2017-10-26T16:13:02.285Z,3.83
2017-10-26T16:15:28.925Z,3.70
2017-10-26T16:17:55.665Z,3.87
2017-10-26T16:20:22.317Z,3.57
2017-10-26T16:22:48.953Z,3.60
2017-10-26T16:25:15.613Z,4.20
2017-10-26T16:27:42.253Z,4.00
2017-10-26T16:30:08.900Z,3.73
2017-10-26T16:32:35.537Z,3.97
2017-10-26T16:35:02.184Z,3.60
2017-10-26T16:37:28.821Z,4.20
2017-10-26T16:39:55.477Z,3.30
2017-10-26T16:42:22.109Z,4.03
2017-10-26T16:44:48.755Z,4.30
2017-10-26T16:47:15.389Z,3.80
2017-10-26T16:49:42.126Z,4.23
2017-10-26T16:52:08.757Z,3.57
2017-10-26T16:54:35.428Z,3.70
2017-10-26T16:57:02.077Z,4.30
2017-10-26T16:59:28.704Z,3.83
2017-10-26T17:01:55.356Z,3.67
2017-10-26T17:04:21.989Z,3.70
2017-10-26T17:06:48.641Z,4.47
2017-10-26T17:09:15.283Z,4.30
2017-10-26T17:11:41.959Z,3.97
2017-10-26T17:14:08.604Z,3.23
2017-10-26T17:16:35.262Z,3.53
2017-10-26T17:19:01.894Z,4.03
2017-10-26T17:21:28.540Z,3.70
2017-10-26T17:23:55.168Z,3.67
2017-10-26T17:26:21.890Z,3.53
2017-10-26T17:28:48.520Z,3.57
2017-10-26T17:31:15.198Z,3.47
2017-10-26T17:33:41.842Z,3.67
2017-10-26T17:36:08.472Z,3.87
2017-10-26T17:38:35.127Z,4.03
2017-10-26T17:41:01.771Z,4.03
2017-10-26T17:43:28.424Z,4.00
2017-10-26T17:45:55.061Z,4.20
2017-10-26T17:48:21.746Z,3.50
2017-10-26T17:50:48.384Z,4.03
2017-10-26T17:53:15.259Z,4.27
2017-10-26T17:55:41.888Z,3.80
2017-10-26T17:58:08.650Z,4.50
2017-10-26T18:00:35.286Z,3.33
2017-10-26T18:03:01.976Z,3.50
2017-10-26T18:05:28.706Z,4.10
2017-10-26T18:07:55.347Z,3.77
2017-10-26T18:10:21.993Z,3.40
2017-10-26T18:12:48.630Z,3.50
2017-10-26T18:15:15.321Z,3.60
2017-10-26T18:17:42.058Z,3.47
2017-10-26T18:20:08.713Z,3.60
2017-10-26T18:22:35.341Z,3.70
2017-10-26T18:25:02.004Z,3.57
2017-10-26T18:27:28.641Z,4.07
2017-10-26T18:29:55.301Z,4.07
2017-10-26T18:32:21.937Z,3.40
2017-10-26T18:34:48.622Z,3.90
2017-10-26T18:37:15.314Z,3.63
2017-10-26T18:39:41.973Z,3.50
2017-10-26T18:42:08.626Z,3.73
2017-10-26T18:44:35.269Z,3.77
2017-10-26T18:47:01.945Z,3.00
2017-10-26T18:49:28.576Z,3.13
2017-10-26T18:51:55.224Z,3.87
2017-10-26T18:54:21.916Z,3.47
2017-10-26T18:56:48.572Z,3.60
2017-10-26T18:59:15.236Z,3.60
2017-10-26T19:01:41.873Z,3.40
2017-10-26T19:04:08.531Z,3.80
2017-10-26T19:06:35.281Z,3.40
2017-10-26T19:09:01.945Z,3.20
2017-10-26T19:11:28.654Z,3.67
2017-10-26T19:13:55.328Z,3.43
2017-10-26T19:16:21.960Z,3.20
2017-10-26T19:18:48.618Z,3.43
2017-10-26T19:21:15.384Z,2.90
2017-10-26T19:23:42.045Z,3.00
2017-10-26T19:26:08.784Z,3.73
2017-10-26T19:28:35.425Z,3.60
2017-10-26T19:31:02.082Z,3.20
2017-10-26T19:33:28.719Z,3.10
2017-10-26T19:35:55.372Z,3.10
2017-10-26T19:38:22.022Z,3.50
2017-10-26T19:40:48.681Z,3.20
2017-10-26T19:43:15.339Z,3.07
2017-10-26T19:45:41.998Z,3.53
2017-10-26T19:48:08.628Z,3.20
2017-10-26T19:50:35.282Z,2.80
2017-10-26T19:53:02.817Z,3.37
2017-10-26T19:55:29.477Z,3.13
2017-10-26T19:57:56.115Z,3.00
2017-10-26T20:00:22.744Z,3.60
2017-10-26T20:02:50.725Z,3.30
2017-10-26T20:05:17.369Z,3.20
2017-10-26T20:07:44.126Z,3.13
2017-10-26T20:10:10.857Z,2.97
2017-10-26T20:12:37.605Z,2.70
2017-10-26T20:15:04.237Z,3.23
2017-10-26T20:17:31.009Z,3.30
2017-10-26T20:19:57.669Z,2.97
2017-10-26T20:22:24.324Z,3.23
2017-10-26T20:24:50.965Z,2.97
2017-10-26T20:27:17.613Z,2.90
2017-10-26T20:29:44.282Z,2.87
2017-10-26T20:32:11.021Z,3.40
2017-10-26T20:34:37.775Z,3.27
2017-10-26T20:37:04.413Z,2.97
2017-10-26T20:39:31.188Z,3.17
2017-10-26T20:41:57.925Z,2.87
2017-10-26T20:44:24.572Z,3.43
2017-10-26T20:46:51.210Z,3.40
2017-10-26T20:49:23.588Z,3.30
2017-10-26T20:52:11.041Z,3.40
2017-10-26T20:54:43.452Z,3.37
2017-10-26T20:57:15.830Z,2.90
2017-10-26T20:59:48.286Z,2.70
2017-10-26T21:02:20.707Z,3.13
2017-10-26T21:04:53.197Z,3.47
2017-10-26T21:07:25.646Z,3.10
2017-10-26T21:09:52.330Z,3.27
2017-10-26T21:12:24.793Z,3.40
2017-10-26T21:14:51.449Z,3.30
2017-10-26T21:17:18.085Z,3.10
2017-10-26T21:19:44.740Z,2.90
2017-10-26T21:22:11.379Z,2.80
2017-10-26T21:24:38.032Z,3.17
2017-10-26T21:27:04.721Z,2.90
2017-10-26T21:29:31.397Z,2.60
2017-10-26T21:31:58.033Z,3.37
2017-10-26T21:34:24.660Z,2.60
2017-10-26T21:36:51.336Z,2.77
2017-10-26T21:39:17.972Z,3.00
2017-10-26T21:41:44.630Z,2.40
2017-10-26T21:44:11.272Z,3.00
2017-10-26T21:46:38.022Z,3.27
2017-10-26T21:49:04.686Z,3.10
2017-10-26T21:51:31.438Z,3.10
2017-10-26T21:53:58.086Z,2.90
2017-10-26T21:56:24.746Z,3.47
2017-10-26T21:58:51.432Z,2.80
2017-10-26T22:01:18.080Z,2.60
2017-10-26T22:03:44.723Z,2.80
2017-10-26T22:06:11.442Z,3.17
2017-10-26T22:08:38.089Z,2.80
2017-10-26T22:11:04.757Z,2.90
2017-10-26T22:13:31.501Z,2.60
2017-10-26T22:15:58.239Z,3.10
2017-10-26T22:18:24.893Z,2.63
2017-10-26T22:20:51.553Z,2.87
2017-10-26T22:23:18.210Z,3.10
2017-10-26T22:25:44.850Z,2.80
2017-10-26T22:28:11.502Z,3.03
2017-10-26T22:30:38.153Z,2.87
2017-10-26T22:33:04.800Z,2.93
2017-10-26T22:35:31.432Z,2.83
2017-10-26T22:37:58.110Z,3.10
2017-10-26T22:40:24.768Z,3.10
2017-10-26T22:42:51.437Z,3.07
2017-10-26T22:45:18.068Z,2.77
2017-10-26T22:47:44.742Z,2.73
2017-10-26T22:50:11.384Z,2.90
2017-10-26T22:52:38.061Z,2.50
2017-10-26T22:55:04.752Z,3.30
2017-10-26T22:57:31.394Z,3.10
2017-10-26T22:59:58.066Z,3.13
2017-10-26T23:02:24.720Z,2.80
2017-10-26T23:04:51.377Z,2.33
2017-10-26T23:07:18.118Z,2.60
2017-10-26T23:09:44.860Z,2.60
2017-10-26T23:12:11.512Z,2.93
2017-10-26T23:14:38.261Z,2.60
2017-10-26T23:17:04.902Z,2.67
2017-10-26T23:19:31.568Z,2.40
2017-10-26T23:21:58.221Z,3.10
2017-10-26T23:24:24.858Z,2.43
2017-10-26T23:26:51.524Z,2.97
2017-10-26T23:29:18.178Z,2.77
2017-10-26T23:31:44.926Z,2.80
2017-10-26T23:34:11.566Z,3.17
2017-10-26T23:36:38.330Z,3.10
2017-10-26T23:39:04.967Z,2.80
2017-10-26T23:41:31.622Z,2.77
2017-10-26T23:43:58.257Z,2.70
2017-10-26T23:46:24.912Z,2.53
2017-10-26T23:48:51.556Z,2.33
2017-10-26T23:51:18.212Z,2.70
2017-10-26T23:53:44.840Z,2.80
2017-10-26T23:56:11.502Z,2.73
2017-10-26T23:58:38.134Z,2.93
